createdAt,value
2023-01-28T00:00:02.492Z,-5.10
2023-01-28T00:02:33.775Z,-5.13
2023-01-28T00:05:01.388Z,-5.24
2023-01-28T00:07:29.169Z,-5.32
2023-01-28T00:09:56.753Z,-5.36
2023-01-28T00:12:24.603Z,-5.41
2023-01-28T00:14:52.516Z,-5.48
2023-01-28T00:17:20.872Z,-5.53
2023-01-28T00:19:48.718Z,-5.55
2023-01-28T00:22:16.446Z,-5.58
2023-01-28T00:24:44.056Z,-5.64
2023-01-28T00:27:11.912Z,-5.68
2023-01-28T00:29:39.970Z,-5.65
2023-01-28T00:32:07.850Z,-5.59
2023-01-28T00:34:35.544Z,-5.54
2023-01-28T00:37:03.245Z,-5.53
2023-01-28T00:39:32.549Z,-5.58
2023-01-28T00:42:02.330Z,-5.64
2023-01-28T00:44:30.176Z,-5.70
2023-01-28T00:46:58.104Z,-5.74
2023-01-28T00:49:25.706Z,-5.74
2023-01-28T00:51:54.048Z,-5.80
2023-01-28T00:54:22.093Z,-5.84
2023-01-28T00:56:49.632Z,-5.84
2023-01-28T00:59:17.311Z,-5.88
2023-01-28T01:01:45.050Z,-5.90
2023-01-28T01:04:12.724Z,-5.96
2023-01-28T01:06:40.658Z,-5.96
2023-01-28T01:09:10.649Z,-5.95
2023-01-28T01:11:38.783Z,-5.95
2023-01-28T01:14:07.353Z,-5.87
2023-01-28T01:16:36.431Z,-5.83
2023-01-28T01:19:04.124Z,-5.78
2023-01-28T01:21:32.737Z,-5.67
2023-01-28T01:24:00.603Z,-5.62
2023-01-28T01:26:28.885Z,-5.58
2023-01-28T01:28:58.387Z,-5.55
2023-01-28T01:31:26.068Z,-5.57
2023-01-28T01:33:53.926Z,-5.56
2023-01-28T01:36:22.478Z,-5.60
2023-01-28T01:38:53.739Z,-5.66
2023-01-28T01:41:29.873Z,-5.71
2023-01-28T01:43:59.640Z,-5.74
2023-01-28T01:46:48.904Z,-5.76
2023-01-28T01:49:27.108Z,-5.81
2023-01-28T01:52:01.975Z,-5.85
2023-01-28T01:54:30.265Z,-5.86
2023-01-28T01:56:57.922Z,-5.84
2023-01-28T01:59:27.617Z,-5.82
2023-01-28T02:01:55.287Z,-5.79
2023-01-28T02:04:25.798Z,-5.78
2023-01-28T02:06:53.485Z,-5.79
2023-01-28T02:09:30.239Z,-5.73
2023-01-28T02:12:19.132Z,-5.76
2023-01-28T02:14:48.901Z,-5.80
2023-01-28T02:17:16.786Z,-5.86
2023-01-28T02:20:09.434Z,-5.93
2023-01-28T02:23:08.493Z,-6.02
2023-01-28T02:25:56.751Z,-6.05
2023-01-28T02:28:27.433Z,-6.05
2023-01-28T02:31:04.958Z,-6.09
2023-01-28T02:33:35.526Z,-6.05
2023-01-28T02:36:14.863Z,-6.03
2023-01-28T02:38:46.000Z,-6.03
2023-01-28T02:41:19.312Z,-6.07
2023-01-28T02:43:47.284Z,-6.12
2023-01-28T02:46:45.503Z,-6.07
2023-01-28T02:49:38.637Z,-6.07
2023-01-28T02:52:58.670Z,-6.11
2023-01-28T02:55:45.748Z,-6.16
2023-01-28T02:58:18.325Z,-6.17
2023-01-28T03:01:26.598Z,-6.18
2023-01-28T03:04:23.590Z,-6.21
2023-01-28T03:06:54.077Z,-6.22
2023-01-28T03:09:25.835Z,-6.22
2023-01-28T03:12:32.906Z,-6.27
2023-01-28T03:15:24.438Z,-6.29
2023-01-28T03:18:29.958Z,-6.34
2023-01-28T03:21:31.533Z,-6.41
2023-01-28T03:24:27.000Z,-6.46
2023-01-28T03:27:25.034Z,-6.52
2023-01-28T03:30:20.318Z,-6.53
2023-01-28T03:33:06.860Z,-6.49
2023-01-28T03:35:54.115Z,-6.53
2023-01-28T03:38:23.202Z,-6.57
2023-01-28T03:40:53.261Z,-6.63
2023-01-28T03:43:21.082Z,-6.65
2023-01-28T04:00:26.717Z,-6.26
2023-01-28T04:02:56.340Z,-6.33
2023-01-28T04:05:25.740Z,-6.30
2023-01-28T04:07:55.744Z,-6.22
2023-01-28T04:10:51.165Z,-6.25
2023-01-28T04:13:30.785Z,-6.28
2023-01-28T04:15:58.502Z,-6.37
2023-01-28T04:18:27.609Z,-6.37
2023-01-28T04:20:57.901Z,-6.38
2023-01-28T04:23:25.627Z,-6.40
2023-01-28T04:25:53.315Z,-6.44
2023-01-28T04:28:23.097Z,-6.42
2023-01-28T04:30:52.274Z,-6.48
2023-01-28T04:33:38.328Z,-6.46
2023-01-28T04:36:24.895Z,-6.41
2023-01-28T04:39:23.154Z,-6.45
2023-01-28T04:42:09.123Z,-6.41
2023-01-28T04:44:54.336Z,-6.44
2023-01-28T04:47:40.660Z,-6.41
2023-01-28T04:50:44.495Z,-6.43
2023-01-28T04:53:41.271Z,-6.41
2023-01-28T04:56:24.644Z,-6.37
2023-01-28T04:58:52.418Z,-6.39
2023-01-28T05:01:20.302Z,-6.43
2023-01-28T05:03:48.228Z,-6.35
2023-01-28T05:06:23.761Z,-6.36
2023-01-28T05:08:55.092Z,-6.28
2023-01-28T05:11:24.515Z,-6.29
2023-01-28T05:13:57.924Z,-6.26
2023-01-28T05:16:32.148Z,-6.22
2023-01-28T05:18:59.922Z,-6.21
2023-01-28T05:21:33.714Z,-6.18
2023-01-28T05:24:08.145Z,-6.12
2023-01-28T05:26:37.480Z,-6.03
2023-01-28T05:29:05.091Z,-5.93
2023-01-28T05:31:34.148Z,-5.85
2023-01-28T05:34:01.768Z,-5.76
2023-01-28T05:36:29.514Z,-5.72
2023-01-28T05:38:58.032Z,-5.71
2023-01-28T05:41:25.731Z,-5.64
2023-01-28T05:43:58.103Z,-5.59
2023-01-28T05:46:55.076Z,-5.59
2023-01-28T05:50:01.166Z,-5.52
2023-01-28T05:52:37.503Z,-5.44
2023-01-28T05:55:08.299Z,-5.36
2023-01-28T05:57:36.339Z,-5.20
2023-01-28T06:00:05.831Z,-5.10
2023-01-28T06:02:43.435Z,-5.05
2023-01-28T06:05:14.728Z,-4.96
2023-01-28T06:07:45.513Z,-4.88
2023-01-28T06:10:13.857Z,-4.78
2023-01-28T06:12:41.878Z,-4.68
2023-01-28T06:15:30.261Z,-4.62
2023-01-28T06:18:18.645Z,-4.57
2023-01-28T06:20:49.973Z,-4.41
2023-01-28T06:23:18.150Z,-4.42
2023-01-28T06:25:45.907Z,-4.42
2023-01-28T06:28:18.048Z,-4.40
2023-01-28T06:30:49.545Z,-4.39
2023-01-28T06:33:17.438Z,-4.39
2023-01-28T06:35:45.687Z,-4.33
2023-01-28T06:38:13.526Z,-4.40
2023-01-28T06:40:41.264Z,-4.34
2023-01-28T06:43:14.198Z,-4.31
2023-01-28T06:45:41.963Z,-4.29
2023-01-28T06:48:09.721Z,-4.30
2023-01-28T06:50:37.408Z,-4.19
2023-01-28T06:53:05.170Z,-4.05
2023-01-28T06:55:32.823Z,-4.03
2023-01-28T06:58:01.400Z,-4.01
2023-01-28T07:00:29.250Z,-3.90
2023-01-28T07:02:57.478Z,-3.76
2023-01-28T07:05:25.540Z,-3.83
2023-01-28T07:07:53.798Z,-3.78
2023-01-28T07:10:21.456Z,-3.86
2023-01-28T07:12:50.247Z,-3.93
2023-01-28T07:15:18.057Z,-3.76
2023-01-28T07:17:45.803Z,-3.67
2023-01-28T07:20:15.800Z,-3.83
2023-01-28T07:22:44.324Z,-3.86
2023-01-28T07:25:12.638Z,-3.74
2023-01-28T07:27:40.433Z,-3.70
2023-01-28T07:30:09.069Z,-3.84
2023-01-28T07:32:40.018Z,-4.06
2023-01-28T07:35:08.427Z,-4.10
2023-01-28T07:37:36.397Z,-4.39
2023-01-28T07:40:04.399Z,-4.45
2023-01-28T07:42:35.303Z,-4.51
2023-01-28T07:45:06.856Z,-4.55
2023-01-28T07:47:34.915Z,-4.48
2023-01-28T07:50:02.820Z,-4.56
2023-01-28T07:52:30.746Z,-4.56
2023-01-28T07:54:58.359Z,-4.45
2023-01-28T07:57:26.140Z,-4.45
2023-01-28T07:59:54.107Z,-4.52
2023-01-28T08:02:21.731Z,-4.57
2023-01-28T08:04:50.398Z,-4.48
2023-01-28T08:07:18.670Z,-4.37
2023-01-28T08:09:46.614Z,-4.33
2023-01-28T08:12:14.340Z,-4.34
2023-01-28T08:14:42.092Z,-4.24
2023-01-28T08:17:15.456Z,-4.11
2023-01-28T08:19:43.269Z,-4.05
2023-01-28T08:22:11.124Z,-4.02
2023-01-28T08:24:39.531Z,-4.04
2023-01-28T08:27:07.318Z,-3.97
2023-01-28T08:29:35.732Z,-4.05
2023-01-28T08:32:03.627Z,-3.92
2023-01-28T08:34:33.462Z,-3.84
2023-01-28T08:37:01.157Z,-3.80
2023-01-28T08:39:29.012Z,-3.68
2023-01-28T08:41:57.009Z,-3.65
2023-01-28T08:44:24.893Z,-3.65
2023-01-28T08:46:52.644Z,-3.64
2023-01-28T08:49:22.554Z,-3.49
2023-01-28T08:51:50.195Z,-3.38
2023-01-28T08:54:18.244Z,-3.24
2023-01-28T08:56:45.952Z,-3.25
2023-01-28T08:59:13.631Z,-3.27
2023-01-28T09:01:41.296Z,-3.16
2023-01-28T09:04:08.958Z,-3.09
2023-01-28T09:06:36.972Z,-2.99
2023-01-28T09:09:04.797Z,-2.91
2023-01-28T09:11:32.934Z,-2.98
2023-01-28T09:14:00.700Z,-2.83
2023-01-28T09:16:28.366Z,-2.90
2023-01-28T09:18:56.116Z,-2.92
2023-01-28T09:21:23.719Z,-2.79
2023-01-28T09:23:52.248Z,-2.83
2023-01-28T09:26:20.392Z,-2.85
2023-01-28T09:28:48.326Z,-2.64
2023-01-28T09:31:15.961Z,-2.63
2023-01-28T09:33:43.824Z,-2.68
2023-01-28T09:36:11.408Z,-2.76
2023-01-28T09:38:39.541Z,-2.51
2023-01-28T09:41:21.232Z,-2.38
2023-01-28T09:44:05.225Z,-2.41
2023-01-28T09:46:36.944Z,-2.42
2023-01-28T09:49:25.021Z,-2.35
2023-01-28T09:51:54.139Z,-2.28
2023-01-28T09:54:28.155Z,-2.27
2023-01-28T09:57:21.540Z,-2.05
2023-01-28T09:59:49.964Z,-2.35
2023-01-28T10:02:36.913Z,-2.24
2023-01-28T10:05:25.097Z,-2.24
2023-01-28T10:08:12.509Z,-1.92
2023-01-28T10:10:51.436Z,-1.84
2023-01-28T10:13:22.209Z,-1.70
2023-01-28T10:15:59.080Z,-1.68
2023-01-28T10:18:57.576Z,-1.67
2023-01-28T10:21:43.244Z,-1.67
2023-01-28T10:24:31.128Z,-1.87
2023-01-28T10:26:58.855Z,-1.78
2023-01-28T10:29:29.376Z,-1.81
2023-01-28T10:32:17.028Z,-1.62
2023-01-28T10:34:45.019Z,-1.59
2023-01-28T10:37:15.901Z,-1.60
2023-01-28T10:39:43.711Z,-1.56
2023-01-28T10:42:30.206Z,-1.49
2023-01-28T10:45:17.155Z,-1.50
2023-01-28T10:48:03.452Z,-1.43
2023-01-28T10:50:31.587Z,-1.41
2023-01-28T10:53:00.722Z,-1.23
2023-01-28T10:55:30.801Z,-1.30
2023-01-28T10:57:58.847Z,-1.37
2023-01-28T11:00:31.035Z,-1.29
2023-01-28T11:02:59.307Z,-1.30
2023-01-28T11:05:30.815Z,-1.41
2023-01-28T11:08:05.975Z,-1.23
2023-01-28T11:10:35.893Z,-1.22
2023-01-28T11:13:05.730Z,-1.26
2023-01-28T11:15:34.299Z,-1.32
2023-01-28T11:18:11.372Z,-1.39
2023-01-28T11:20:41.807Z,-1.40
2023-01-28T11:23:20.111Z,-1.51
2023-01-28T11:25:48.057Z,-1.46
2023-01-28T11:28:20.037Z,-1.46
2023-01-28T11:30:52.275Z,-1.40
2023-01-28T11:33:26.894Z,-1.27
2023-01-28T11:36:04.054Z,-1.10
2023-01-28T11:38:32.235Z,-1.18
2023-01-28T11:41:01.593Z,-1.11
2023-01-28T11:43:31.152Z,-1.07
2023-01-28T11:46:20.649Z,-1.02
2023-01-28T11:49:13.245Z,-0.94
2023-01-28T11:51:47.550Z,-0.96
2023-01-28T11:54:27.300Z,-0.88
2023-01-28T11:57:13.274Z,-0.94
2023-01-28T11:59:59.124Z,-0.84
2023-01-28T12:02:45.954Z,-0.68
2023-01-28T12:05:38.315Z,-0.79
2023-01-28T12:08:25.413Z,-0.85
2023-01-28T12:11:13.086Z,-0.67
2023-01-28T12:13:45.112Z,-0.66
2023-01-28T12:16:22.461Z,-0.54
2023-01-28T12:19:13.438Z,-0.59
2023-01-28T12:22:11.968Z,-0.51
2023-01-28T12:25:08.758Z,-0.37
2023-01-28T12:27:48.555Z,-0.28
2023-01-28T12:30:22.532Z,-0.17
2023-01-28T12:32:58.794Z,-0.34
2023-01-28T12:35:32.826Z,-0.33
2023-01-28T12:38:15.716Z,-0.27
2023-01-28T12:40:48.347Z,-0.31
2023-01-28T12:43:37.453Z,-0.29
2023-01-28T12:46:10.044Z,-0.26
2023-01-28T12:48:44.209Z,-0.20
2023-01-28T12:51:18.525Z,-0.34
2023-01-28T12:53:52.716Z,-0.34
2023-01-28T12:56:24.088Z,-0.31
2023-01-28T12:58:56.528Z,-0.45
2023-01-28T13:01:30.345Z,-0.36
2023-01-28T13:04:03.418Z,-0.31
2023-01-28T16:51:18.346Z,-0.37
2023-01-28T16:53:47.397Z,-0.43
2023-01-28T16:56:44.591Z,-0.47
2023-01-28T16:59:13.845Z,-0.44
2023-01-28T17:01:41.556Z,-0.41
2023-01-28T17:04:12.228Z,-0.53
2023-01-28T17:06:44.917Z,-0.42
2023-01-28T17:09:13.960Z,-0.51
2023-01-28T17:11:41.918Z,-0.44
2023-01-28T17:14:10.443Z,-0.50
2023-01-28T17:16:38.488Z,-0.48
2023-01-28T17:19:06.799Z,-0.45
2023-01-28T17:21:49.935Z,-0.50
2023-01-28T17:24:17.666Z,-0.52
2023-01-28T17:26:45.654Z,-0.52
2023-01-28T17:29:13.338Z,-0.49
2023-01-28T17:31:41.091Z,-0.51
2023-01-28T17:34:11.521Z,-0.51
2023-01-28T17:36:42.074Z,-0.45
2023-01-28T17:39:09.971Z,-0.49
2023-01-28T17:41:38.035Z,-0.54
2023-01-28T17:44:05.999Z,-0.45
2023-01-28T17:46:34.959Z,-0.45
2023-01-28T17:49:03.226Z,-0.37
2023-01-28T17:51:30.933Z,-0.37
2023-01-28T17:53:58.603Z,-0.42
2023-01-28T17:56:27.484Z,-0.43
2023-01-28T17:58:57.118Z,-0.43
2023-01-28T23:23:49.364Z,0.54
2023-01-28T23:26:17.023Z,0.49
2023-01-28T23:28:44.555Z,0.45
2023-01-28T23:31:12.197Z,0.46
2023-01-28T23:33:39.752Z,0.33
2023-01-28T23:36:07.690Z,0.37
2023-01-28T23:38:35.258Z,0.35
2023-01-28T23:41:02.883Z,0.35
2023-01-28T23:43:30.502Z,0.34
2023-01-28T23:45:58.040Z,0.28
2023-01-28T23:48:26.392Z,0.29
2023-01-28T23:50:56.971Z,0.31
2023-01-28T23:53:25.339Z,0.28
2023-01-28T23:55:53.489Z,0.27
2023-01-28T23:58:37.484Z,0.29
